sensor_id;sensor_type;location;lat;lon;timestamp;P1;durP1;ratioP1;P2;durP2;ratioP2
13220;SDS011;6675;48.128;11.478;2024-03-17T00:01:20;8.05;;;3.67;;
13220;SDS011;6675;48.128;11.478;2024-03-17T00:03:46;6.25;;;3.47;;
13220;SDS011;6675;48.128;11.478;2024-03-17T00:06:11;7.00;;;3.75;;
13220;SDS011;6675;48.128;11.478;2024-03-17T00:08:37;6.30;;;3.45;;
13220;SDS011;6675;48.128;11.478;2024-03-17T00:11:02;6.93;;;3.25;;
13220;SDS011;6675;48.128;11.478;2024-03-17T00:13:28;8.40;;;4.20;;
13220;SDS011;6675;48.128;11.478;2024-03-17T00:15:54;8.35;;;4.15;;
13220;SDS011;6675;48.128;11.478;2024-03-17T00:18:19;6.72;;;3.70;;
13220;SDS011;6675;48.128;11.478;2024-03-17T00:20:45;8.48;;;3.83;;
13220;SDS011;6675;48.128;11.478;2024-03-17T00:23:10;6.88;;;3.38;;
13220;SDS011;6675;48.128;11.478;2024-03-17T00:25:37;7.00;;;3.65;;
13220;SDS011;6675;48.128;11.478;2024-03-17T00:28:03;7.22;;;3.67;;
13220;SDS011;6675;48.128;11.478;2024-03-17T00:30:29;6.15;;;3.15;;
13220;SDS011;6675;48.128;11.478;2024-03-17T00:32:56;7.53;;;3.47;;
13220;SDS011;6675;48.128;11.478;2024-03-17T00:35:23;8.13;;;4.20;;
13220;SDS011;6675;48.128;11.478;2024-03-17T00:37:48;6.25;;;3.92;;
13220;SDS011;6675;48.128;11.478;2024-03-17T00:40:15;6.10;;;3.38;;
13220;SDS011;6675;48.128;11.478;2024-03-17T00:42:42;8.30;;;4.05;;
13220;SDS011;6675;48.128;11.478;2024-03-17T00:45:08;7.47;;;3.90;;
13220;SDS011;6675;48.128;11.478;2024-03-17T00:47:35;5.60;;;3.17;;
13220;SDS011;6675;48.128;11.478;2024-03-17T00:50:01;7.93;;;4.05;;
13220;SDS011;6675;48.128;11.478;2024-03-17T00:52:29;6.30;;;3.88;;
13220;SDS011;6675;48.128;11.478;2024-03-17T00:54:54;7.32;;;3.50;;
13220;SDS011;6675;48.128;11.478;2024-03-17T00:57:20;7.70;;;3.95;;
13220;SDS011;6675;48.128;11.478;2024-03-17T00:59:45;7.38;;;3.72;;
13220;SDS011;6675;48.128;11.478;2024-03-17T01:02:11;6.70;;;3.42;;
13220;SDS011;6675;48.128;11.478;2024-03-17T01:04:39;6.82;;;4.03;;
13220;SDS011;6675;48.128;11.478;2024-03-17T01:07:05;7.45;;;3.88;;
13220;SDS011;6675;48.128;11.478;2024-03-17T01:09:31;8.30;;;3.83;;
13220;SDS011;6675;48.128;11.478;2024-03-17T01:11:56;6.30;;;3.50;;
13220;SDS011;6675;48.128;11.478;2024-03-17T01:14:22;7.78;;;4.05;;
13220;SDS011;6675;48.128;11.478;2024-03-17T01:16:47;6.78;;;3.53;;
13220;SDS011;6675;48.128;11.478;2024-03-17T01:19:15;7.78;;;4.20;;
13220;SDS011;6675;48.128;11.478;2024-03-17T01:21:40;6.97;;;3.85;;
13220;SDS011;6675;48.128;11.478;2024-03-17T01:24:06;7.07;;;3.70;;
13220;SDS011;6675;48.128;11.478;2024-03-17T01:26:32;6.90;;;3.60;;
13220;SDS011;6675;48.128;11.478;2024-03-17T01:28:58;6.97;;;3.33;;
13220;SDS011;6675;48.128;11.478;2024-03-17T01:31:23;7.82;;;3.65;;
13220;SDS011;6675;48.128;11.478;2024-03-17T01:33:50;7.45;;;3.40;;
13220;SDS011;6675;48.128;11.478;2024-03-17T01:36:15;7.50;;;3.50;;
13220;SDS011;6675;48.128;11.478;2024-03-17T01:38:41;6.13;;;3.03;;
13220;SDS011;6675;48.128;11.478;2024-03-17T01:41:06;5.95;;;3.20;;
13220;SDS011;6675;48.128;11.478;2024-03-17T01:43:32;7.72;;;3.38;;
13220;SDS011;6675;48.128;11.478;2024-03-17T01:45:58;7.47;;;3.95;;
13220;SDS011;6675;48.128;11.478;2024-03-17T01:48:24;7.55;;;3.90;;
13220;SDS011;6675;48.128;11.478;2024-03-17T01:50:51;6.90;;;3.40;;
13220;SDS011;6675;48.128;11.478;2024-03-17T01:53:20;6.45;;;3.55;;
13220;SDS011;6675;48.128;11.478;2024-03-17T01:55:49;7.75;;;3.92;;
13220;SDS011;6675;48.128;11.478;2024-03-17T01:58:14;8.32;;;3.47;;
13220;SDS011;6675;48.128;11.478;2024-03-17T02:00:41;7.97;;;3.88;;
13220;SDS011;6675;48.128;11.478;2024-03-17T02:03:07;6.47;;;3.40;;
13220;SDS011;6675;48.128;11.478;2024-03-17T02:05:34;8.10;;;3.40;;
13220;SDS011;6675;48.128;11.478;2024-03-17T02:08:02;7.50;;;3.80;;
13220;SDS011;6675;48.128;11.478;2024-03-17T02:10:32;6.97;;;3.38;;
13220;SDS011;6675;48.128;11.478;2024-03-17T02:12:58;6.10;;;2.95;;
13220;SDS011;6675;48.128;11.478;2024-03-17T02:15:24;6.70;;;3.17;;
13220;SDS011;6675;48.128;11.478;2024-03-17T02:17:50;5.78;;;3.00;;
13220;SDS011;6675;48.128;11.478;2024-03-17T02:20:15;6.70;;;2.83;;
13220;SDS011;6675;48.128;11.478;2024-03-17T02:22:41;6.55;;;2.92;;
13220;SDS011;6675;48.128;11.478;2024-03-17T02:25:07;6.13;;;3.28;;
13220;SDS011;6675;48.128;11.478;2024-03-17T02:27:33;6.75;;;3.15;;
13220;SDS011;6675;48.128;11.478;2024-03-17T02:30:00;6.90;;;3.33;;
13220;SDS011;6675;48.128;11.478;2024-03-17T02:32:26;8.55;;;3.25;;
13220;SDS011;6675;48.128;11.478;2024-03-17T02:34:52;7.00;;;3.00;;
13220;SDS011;6675;48.128;11.478;2024-03-17T02:37:18;9.07;;;3.78;;
13220;SDS011;6675;48.128;11.478;2024-03-17T02:39:44;6.88;;;3.30;;
13220;SDS011;6675;48.128;11.478;2024-03-17T02:42:10;7.20;;;2.97;;
13220;SDS011;6675;48.128;11.478;2024-03-17T02:44:37;7.20;;;3.38;;
13220;SDS011;6675;48.128;11.478;2024-03-17T02:47:04;7.57;;;3.50;;
13220;SDS011;6675;48.128;11.478;2024-03-17T02:49:30;6.50;;;3.22;;
13220;SDS011;6675;48.128;11.478;2024-03-17T02:52:04;6.18;;;3.03;;
13220;SDS011;6675;48.128;11.478;2024-03-17T02:54:36;6.07;;;3.03;;
13220;SDS011;6675;48.128;11.478;2024-03-17T02:57:03;7.30;;;3.25;;
13220;SDS011;6675;48.128;11.478;2024-03-17T02:59:30;6.32;;;3.00;;
13220;SDS011;6675;48.128;11.478;2024-03-17T03:01:56;5.57;;;2.88;;
13220;SDS011;6675;48.128;11.478;2024-03-17T03:04:22;5.78;;;2.83;;
13220;SDS011;6675;48.128;11.478;2024-03-17T03:06:48;7.25;;;3.22;;
13220;SDS011;6675;48.128;11.478;2024-03-17T03:09:13;5.65;;;2.97;;
13220;SDS011;6675;48.128;11.478;2024-03-17T03:11:50;6.47;;;2.97;;
13220;SDS011;6675;48.128;11.478;2024-03-17T03:14:16;5.80;;;2.97;;
13220;SDS011;6675;48.128;11.478;2024-03-17T03:16:42;5.53;;;2.75;;
13220;SDS011;6675;48.128;11.478;2024-03-17T03:19:08;5.93;;;2.83;;
13220;SDS011;6675;48.128;11.478;2024-03-17T03:21:34;7.40;;;3.08;;
13220;SDS011;6675;48.128;11.478;2024-03-17T03:24:00;5.72;;;2.90;;
13220;SDS011;6675;48.128;11.478;2024-03-17T03:26:26;7.63;;;3.40;;
13220;SDS011;6675;48.128;11.478;2024-03-17T03:28:53;5.63;;;2.80;;
13220;SDS011;6675;48.128;11.478;2024-03-17T03:31:20;6.00;;;2.90;;
13220;SDS011;6675;48.128;11.478;2024-03-17T03:33:46;6.13;;;3.17;;
13220;SDS011;6675;48.128;11.478;2024-03-17T03:36:13;7.10;;;3.20;;
13220;SDS011;6675;48.128;11.478;2024-03-17T03:38:39;6.63;;;2.88;;
13220;SDS011;6675;48.128;11.478;2024-03-17T03:41:06;6.32;;;2.90;;
13220;SDS011;6675;48.128;11.478;2024-03-17T03:43:36;8.18;;;3.40;;
13220;SDS011;6675;48.128;11.478;2024-03-17T03:46:03;7.65;;;3.13;;
13220;SDS011;6675;48.128;11.478;2024-03-17T03:48:29;6.45;;;3.00;;
13220;SDS011;6675;48.128;11.478;2024-03-17T03:50:55;5.63;;;3.10;;
13220;SDS011;6675;48.128;11.478;2024-03-17T03:53:21;6.97;;;3.33;;
13220;SDS011;6675;48.128;11.478;2024-03-17T03:55:47;5.60;;;2.85;;
13220;SDS011;6675;48.128;11.478;2024-03-17T03:58:14;6.13;;;3.17;;
13220;SDS011;6675;48.128;11.478;2024-03-17T04:00:39;6.70;;;3.40;;
13220;SDS011;6675;48.128;11.478;2024-03-17T04:03:05;6.90;;;3.83;;
13220;SDS011;6675;48.128;11.478;2024-03-17T04:05:31;8.23;;;3.90;;
13220;SDS011;6675;48.128;11.478;2024-03-17T04:07:57;6.32;;;3.28;;
13220;SDS011;6675;48.128;11.478;2024-03-17T04:10:23;7.40;;;3.85;;
13220;SDS011;6675;48.128;11.478;2024-03-17T04:12:49;7.05;;;3.45;;
13220;SDS011;6675;48.128;11.478;2024-03-17T04:15:16;8.82;;;3.97;;
13220;SDS011;6675;48.128;11.478;2024-03-17T04:17:42;7.07;;;3.65;;
13220;SDS011;6675;48.128;11.478;2024-03-17T04:20:07;7.85;;;3.75;;
13220;SDS011;6675;48.128;11.478;2024-03-17T04:22:35;14.07;;;4.72;;
13220;SDS011;6675;48.128;11.478;2024-03-17T04:25:01;8.05;;;3.67;;
13220;SDS011;6675;48.128;11.478;2024-03-17T04:27:28;8.15;;;4.10;;
13220;SDS011;6675;48.128;11.478;2024-03-17T04:29:55;8.43;;;4.47;;
13220;SDS011;6675;48.128;11.478;2024-03-17T04:32:22;7.13;;;4.00;;
13220;SDS011;6675;48.128;11.478;2024-03-17T04:34:48;7.97;;;3.63;;
13220;SDS011;6675;48.128;11.478;2024-03-17T04:37:14;8.25;;;4.03;;
13220;SDS011;6675;48.128;11.478;2024-03-17T04:39:43;7.85;;;3.47;;
13220;SDS011;6675;48.128;11.478;2024-03-17T04:42:10;7.00;;;3.30;;
13220;SDS011;6675;48.128;11.478;2024-03-17T04:44:36;7.28;;;3.33;;
13220;SDS011;6675;48.128;11.478;2024-03-17T04:47:02;7.10;;;3.25;;
13220;SDS011;6675;48.128;11.478;2024-03-17T04:49:35;6.97;;;3.58;;
13220;SDS011;6675;48.128;11.478;2024-03-17T04:54:35;8.40;;;3.97;;
13220;SDS011;6675;48.128;11.478;2024-03-17T04:57:01;8.30;;;3.88;;
13220;SDS011;6675;48.128;11.478;2024-03-17T04:59:27;8.57;;;3.92;;
13220;SDS011;6675;48.128;11.478;2024-03-17T05:01:53;7.15;;;3.78;;
13220;SDS011;6675;48.128;11.478;2024-03-17T05:04:18;7.60;;;3.92;;
13220;SDS011;6675;48.128;11.478;2024-03-17T05:06:44;6.63;;;3.70;;
13220;SDS011;6675;48.128;11.478;2024-03-17T05:09:14;7.70;;;3.97;;
13220;SDS011;6675;48.128;11.478;2024-03-17T05:11:40;7.47;;;3.70;;
13220;SDS011;6675;48.128;11.478;2024-03-17T05:14:06;6.57;;;3.80;;
13220;SDS011;6675;48.128;11.478;2024-03-17T05:16:32;8.40;;;4.40;;
13220;SDS011;6675;48.128;11.478;2024-03-17T05:18:58;8.57;;;4.10;;
13220;SDS011;6675;48.128;11.478;2024-03-17T05:21:24;7.97;;;4.07;;
13220;SDS011;6675;48.128;11.478;2024-03-17T05:23:50;8.20;;;4.28;;
13220;SDS011;6675;48.128;11.478;2024-03-17T05:26:16;7.72;;;4.38;;
13220;SDS011;6675;48.128;11.478;2024-03-17T05:28:42;6.80;;;3.78;;
13220;SDS011;6675;48.128;11.478;2024-03-17T05:31:09;7.57;;;4.13;;
13220;SDS011;6675;48.128;11.478;2024-03-17T05:33:35;8.05;;;4.22;;
13220;SDS011;6675;48.128;11.478;2024-03-17T05:36:01;8.30;;;4.28;;
13220;SDS011;6675;48.128;11.478;2024-03-17T05:38:28;8.88;;;4.15;;
13220;SDS011;6675;48.128;11.478;2024-03-17T05:43:22;7.82;;;3.80;;
13220;SDS011;6675;48.128;11.478;2024-03-17T05:45:49;7.40;;;4.40;;
13220;SDS011;6675;48.128;11.478;2024-03-17T05:48:16;8.32;;;4.80;;
13220;SDS011;6675;48.128;11.478;2024-03-17T05:50:42;9.40;;;4.50;;
13220;SDS011;6675;48.128;11.478;2024-03-17T05:53:07;8.20;;;4.00;;
13220;SDS011;6675;48.128;11.478;2024-03-17T05:55:36;10.02;;;4.65;;
13220;SDS011;6675;48.128;11.478;2024-03-17T05:58:02;7.85;;;4.13;;
13220;SDS011;6675;48.128;11.478;2024-03-17T06:00:28;8.57;;;4.03;;
13220;SDS011;6675;48.128;11.478;2024-03-17T06:02:55;7.32;;;3.67;;
13220;SDS011;6675;48.128;11.478;2024-03-17T06:05:21;7.80;;;3.75;;
13220;SDS011;6675;48.128;11.478;2024-03-17T06:07:47;9.05;;;4.38;;
13220;SDS011;6675;48.128;11.478;2024-03-17T06:10:13;8.18;;;3.75;;
13220;SDS011;6675;48.128;11.478;2024-03-17T06:12:42;6.90;;;3.80;;
13220;SDS011;6675;48.128;11.478;2024-03-17T06:15:09;7.55;;;3.63;;
13220;SDS011;6675;48.128;11.478;2024-03-17T06:17:35;7.18;;;3.65;;
13220;SDS011;6675;48.128;11.478;2024-03-17T06:20:01;7.53;;;3.88;;
13220;SDS011;6675;48.128;11.478;2024-03-17T06:22:28;7.45;;;4.10;;
13220;SDS011;6675;48.128;11.478;2024-03-17T06:24:54;9.63;;;4.45;;
13220;SDS011;6675;48.128;11.478;2024-03-17T06:27:20;7.90;;;4.13;;
13220;SDS011;6675;48.128;11.478;2024-03-17T06:29:45;9.25;;;4.43;;
13220;SDS011;6675;48.128;11.478;2024-03-17T06:32:11;13.35;;;6.43;;
13220;SDS011;6675;48.128;11.478;2024-03-17T06:34:37;11.88;;;6.10;;
13220;SDS011;6675;48.128;11.478;2024-03-17T06:37:03;11.68;;;5.15;;
13220;SDS011;6675;48.128;11.478;2024-03-17T06:39:28;9.05;;;4.30;;
13220;SDS011;6675;48.128;11.478;2024-03-17T06:41:54;9.80;;;4.80;;
13220;SDS011;6675;48.128;11.478;2024-03-17T06:44:20;12.65;;;5.32;;
13220;SDS011;6675;48.128;11.478;2024-03-17T06:46:49;9.45;;;5.18;;
13220;SDS011;6675;48.128;11.478;2024-03-17T06:49:15;10.45;;;6.05;;
13220;SDS011;6675;48.128;11.478;2024-03-17T06:51:40;9.75;;;6.00;;
13220;SDS011;6675;48.128;11.478;2024-03-17T06:54:06;11.38;;;6.78;;
13220;SDS011;6675;48.128;11.478;2024-03-17T06:56:33;12.25;;;6.70;;
13220;SDS011;6675;48.128;11.478;2024-03-17T06:59:00;12.02;;;6.82;;
13220;SDS011;6675;48.128;11.478;2024-03-17T07:01:25;11.25;;;6.20;;
13220;SDS011;6675;48.128;11.478;2024-03-17T07:03:51;9.27;;;5.65;;
13220;SDS011;6675;48.128;11.478;2024-03-17T07:06:16;11.07;;;5.72;;
13220;SDS011;6675;48.128;11.478;2024-03-17T07:08:42;9.57;;;5.38;;
13220;SDS011;6675;48.128;11.478;2024-03-17T07:11:07;9.88;;;5.72;;
13220;SDS011;6675;48.128;11.478;2024-03-17T07:13:37;10.13;;;5.53;;
13220;SDS011;6675;48.128;11.478;2024-03-17T07:16:04;11.50;;;6.57;;
13220;SDS011;6675;48.128;11.478;2024-03-17T07:18:31;10.77;;;5.75;;
13220;SDS011;6675;48.128;11.478;2024-03-17T07:20:57;11.35;;;6.03;;
13220;SDS011;6675;48.128;11.478;2024-03-17T07:23:26;10.15;;;5.57;;
13220;SDS011;6675;48.128;11.478;2024-03-17T07:25:52;10.45;;;6.35;;
13220;SDS011;6675;48.128;11.478;2024-03-17T07:28:21;12.07;;;6.00;;
13220;SDS011;6675;48.128;11.478;2024-03-17T07:30:50;10.57;;;5.78;;
13220;SDS011;6675;48.128;11.478;2024-03-17T07:33:20;10.52;;;5.72;;
13220;SDS011;6675;48.128;11.478;2024-03-17T07:35:50;10.52;;;6.15;;
13220;SDS011;6675;48.128;11.478;2024-03-17T07:38:25;10.77;;;6.05;;
13220;SDS011;6675;48.128;11.478;2024-03-17T07:41:00;12.60;;;5.90;;
13220;SDS011;6675;48.128;11.478;2024-03-17T07:43:28;13.02;;;7.15;;
13220;SDS011;6675;48.128;11.478;2024-03-17T07:48:32;16.75;;;9.70;;
13220;SDS011;6675;48.128;11.478;2024-03-17T07:51:02;16.83;;;10.35;;
13220;SDS011;6675;48.128;11.478;2024-03-17T07:53:34;15.13;;;8.93;;
13220;SDS011;6675;48.128;11.478;2024-03-17T07:56:04;11.50;;;6.38;;
13220;SDS011;6675;48.128;11.478;2024-03-17T07:58:32;10.73;;;6.40;;
13220;SDS011;6675;48.128;11.478;2024-03-17T08:00:59;10.02;;;5.75;;
13220;SDS011;6675;48.128;11.478;2024-03-17T08:03:29;11.68;;;5.80;;
13220;SDS011;6675;48.128;11.478;2024-03-17T08:05:56;11.63;;;5.78;;
13220;SDS011;6675;48.128;11.478;2024-03-17T08:08:23;12.18;;;6.03;;
13220;SDS011;6675;48.128;11.478;2024-03-17T08:10:49;11.40;;;5.85;;
13220;SDS011;6675;48.128;11.478;2024-03-17T08:13:15;10.35;;;5.18;;
13220;SDS011;6675;48.128;11.478;2024-03-17T08:15:44;10.68;;;5.78;;
13220;SDS011;6675;48.128;11.478;2024-03-17T08:18:11;9.98;;;5.60;;
13220;SDS011;6675;48.128;11.478;2024-03-17T08:20:40;9.82;;;5.47;;
13220;SDS011;6675;48.128;11.478;2024-03-17T08:23:11;9.00;;;5.18;;
13220;SDS011;6675;48.128;11.478;2024-03-17T08:25:37;10.88;;;6.03;;
13220;SDS011;6675;48.128;11.478;2024-03-17T08:28:03;9.70;;;5.18;;
13220;SDS011;6675;48.128;11.478;2024-03-17T08:30:29;9.20;;;5.45;;
13220;SDS011;6675;48.128;11.478;2024-03-17T08:32:57;8.40;;;5.00;;
13220;SDS011;6675;48.128;11.478;2024-03-17T08:35:23;11.65;;;5.85;;
13220;SDS011;6675;48.128;11.478;2024-03-17T08:37:48;7.78;;;4.70;;
13220;SDS011;6675;48.128;11.478;2024-03-17T08:40:16;7.95;;;4.57;;
13220;SDS011;6675;48.128;11.478;2024-03-17T08:42:42;6.88;;;3.85;;
13220;SDS011;6675;48.128;11.478;2024-03-17T08:45:09;6.80;;;4.70;;
13220;SDS011;6675;48.128;11.478;2024-03-17T08:47:36;8.10;;;4.38;;
13220;SDS011;6675;48.128;11.478;2024-03-17T08:50:02;7.57;;;4.45;;
13220;SDS011;6675;48.128;11.478;2024-03-17T08:52:29;6.57;;;4.18;;
13220;SDS011;6675;48.128;11.478;2024-03-17T08:54:58;6.63;;;4.22;;
13220;SDS011;6675;48.128;11.478;2024-03-17T08:57:24;7.00;;;4.30;;
13220;SDS011;6675;48.128;11.478;2024-03-17T08:59:50;7.03;;;4.35;;
13220;SDS011;6675;48.128;11.478;2024-03-17T09:02:18;6.18;;;4.20;;
13220;SDS011;6675;48.128;11.478;2024-03-17T09:04:46;5.40;;;3.78;;
13220;SDS011;6675;48.128;11.478;2024-03-17T09:07:11;5.90;;;4.00;;
13220;SDS011;6675;48.128;11.478;2024-03-17T09:09:38;5.40;;;3.65;;
13220;SDS011;6675;48.128;11.478;2024-03-17T09:12:04;5.45;;;4.35;;
13220;SDS011;6675;48.128;11.478;2024-03-17T09:14:30;4.18;;;3.13;;
13220;SDS011;6675;48.128;11.478;2024-03-17T09:16:56;6.15;;;3.97;;
13220;SDS011;6675;48.128;11.478;2024-03-17T09:19:23;7.30;;;3.83;;
13220;SDS011;6675;48.128;11.478;2024-03-17T09:21:48;5.13;;;3.60;;
13220;SDS011;6675;48.128;11.478;2024-03-17T09:24:14;3.72;;;2.60;;
13220;SDS011;6675;48.128;11.478;2024-03-17T09:26:40;3.83;;;2.90;;
13220;SDS011;6675;48.128;11.478;2024-03-17T09:29:05;3.92;;;2.53;;
13220;SDS011;6675;48.128;11.478;2024-03-17T09:31:31;3.90;;;2.80;;
13220;SDS011;6675;48.128;11.478;2024-03-17T09:34:03;4.25;;;2.70;;
13220;SDS011;6675;48.128;11.478;2024-03-17T09:36:29;5.03;;;4.13;;
13220;SDS011;6675;48.128;11.478;2024-03-17T09:38:56;4.97;;;3.35;;
13220;SDS011;6675;48.128;11.478;2024-03-17T09:41:22;3.75;;;3.13;;
13220;SDS011;6675;48.128;11.478;2024-03-17T09:43:50;4.80;;;4.25;;
13220;SDS011;6675;48.128;11.478;2024-03-17T09:46:18;3.90;;;3.30;;
13220;SDS011;6675;48.128;11.478;2024-03-17T09:48:44;3.58;;;2.80;;
13220;SDS011;6675;48.128;11.478;2024-03-17T09:51:15;4.68;;;3.42;;
13220;SDS011;6675;48.128;11.478;2024-03-17T09:53:47;4.28;;;3.10;;
13220;SDS011;6675;48.128;11.478;2024-03-17T09:56:14;3.40;;;2.72;;
13220;SDS011;6675;48.128;11.478;2024-03-17T09:58:41;3.78;;;3.10;;
13220;SDS011;6675;48.128;11.478;2024-03-17T10:01:07;4.85;;;3.60;;
13220;SDS011;6675;48.128;11.478;2024-03-17T10:03:39;3.65;;;3.13;;
13220;SDS011;6675;48.128;11.478;2024-03-17T10:06:20;3.90;;;3.47;;
13220;SDS011;6675;48.128;11.478;2024-03-17T10:08:53;3.10;;;2.30;;
13220;SDS011;6675;48.128;11.478;2024-03-17T10:11:21;4.30;;;2.90;;
13220;SDS011;6675;48.128;11.478;2024-03-17T10:14:09;3.92;;;3.42;;
13220;SDS011;6675;48.128;11.478;2024-03-17T10:16:35;4.13;;;3.33;;
13220;SDS011;6675;48.128;11.478;2024-03-17T10:19:09;5.40;;;3.83;;
13220;SDS011;6675;48.128;11.478;2024-03-17T10:26:53;4.70;;;3.58;;
13220;SDS011;6675;48.128;11.478;2024-03-17T10:31:49;5.32;;;3.35;;
13220;SDS011;6675;48.128;11.478;2024-03-17T10:34:29;5.22;;;2.92;;
13220;SDS011;6675;48.128;11.478;2024-03-17T10:37:22;4.65;;;3.15;;
13220;SDS011;6675;48.128;11.478;2024-03-17T10:39:50;4.07;;;2.63;;
13220;SDS011;6675;48.128;11.478;2024-03-17T10:42:27;4.45;;;3.17;;
13220;SDS011;6675;48.128;11.478;2024-03-17T10:44:53;3.33;;;2.60;;
13220;SDS011;6675;48.128;11.478;2024-03-17T10:47:25;4.53;;;3.75;;
13220;SDS011;6675;48.128;11.478;2024-03-17T10:49:52;4.15;;;3.60;;
13220;SDS011;6675;48.128;11.478;2024-03-17T10:52:20;4.57;;;2.90;;
13220;SDS011;6675;48.128;11.478;2024-03-17T10:54:51;4.30;;;2.95;;
13220;SDS011;6675;48.128;11.478;2024-03-17T10:57:31;3.90;;;3.17;;
13220;SDS011;6675;48.128;11.478;2024-03-17T11:00:01;3.35;;;2.58;;
13220;SDS011;6675;48.128;11.478;2024-03-17T11:05:40;2.80;;;2.13;;
13220;SDS011;6675;48.128;11.478;2024-03-17T11:07:51;3.25;;;2.40;;
13220;SDS011;6675;48.128;11.478;2024-03-17T11:12:56;3.42;;;2.78;;
13220;SDS011;6675;48.128;11.478;2024-03-17T11:20:34;4.13;;;2.67;;
13220;SDS011;6675;48.128;11.478;2024-03-17T11:23:04;4.22;;;2.78;;
13220;SDS011;6675;48.128;11.478;2024-03-17T11:28:01;2.92;;;2.30;;
13220;SDS011;6675;48.128;11.478;2024-03-17T11:52:14;5.97;;;3.90;;
13220;SDS011;6675;48.128;11.478;2024-03-17T11:54:42;4.90;;;2.97;;
13220;SDS011;6675;48.128;11.478;2024-03-17T11:57:14;3.00;;;2.33;;
13220;SDS011;6675;48.128;11.478;2024-03-17T11:59:47;5.32;;;3.30;;
13220;SDS011;6675;48.128;11.478;2024-03-17T12:04:49;3.88;;;2.70;;
13220;SDS011;6675;48.128;11.478;2024-03-17T12:07:17;2.83;;;1.98;;
13220;SDS011;6675;48.128;11.478;2024-03-17T12:09:45;2.72;;;1.77;;
13220;SDS011;6675;48.128;11.478;2024-03-17T12:12:18;4.47;;;2.58;;
13220;SDS011;6675;48.128;11.478;2024-03-17T12:14:48;4.05;;;2.88;;
13220;SDS011;6675;48.128;11.478;2024-03-17T12:17:19;3.90;;;2.45;;
13220;SDS011;6675;48.128;11.478;2024-03-17T12:19:46;4.50;;;3.25;;
13220;SDS011;6675;48.128;11.478;2024-03-17T12:22:16;3.83;;;2.70;;
13220;SDS011;6675;48.128;11.478;2024-03-17T12:24:47;3.67;;;2.63;;
13220;SDS011;6675;48.128;11.478;2024-03-17T12:27:17;4.30;;;2.72;;
13220;SDS011;6675;48.128;11.478;2024-03-17T12:29:44;4.57;;;2.88;;
13220;SDS011;6675;48.128;11.478;2024-03-17T12:34:38;5.13;;;2.97;;
13220;SDS011;6675;48.128;11.478;2024-03-17T12:37:05;3.53;;;2.55;;
13220;SDS011;6675;48.128;11.478;2024-03-17T12:39:31;3.92;;;2.53;;
13220;SDS011;6675;48.128;11.478;2024-03-17T12:44:27;4.95;;;3.08;;
13220;SDS011;6675;48.128;11.478;2024-03-17T12:46:55;4.07;;;2.33;;
13220;SDS011;6675;48.128;11.478;2024-03-17T12:49:27;4.63;;;2.67;;
13220;SDS011;6675;48.128;11.478;2024-03-17T12:52:14;4.65;;;2.20;;
13220;SDS011;6675;48.128;11.478;2024-03-17T12:55:03;4.85;;;2.55;;
13220;SDS011;6675;48.128;11.478;2024-03-17T12:57:51;4.75;;;3.17;;
13220;SDS011;6675;48.128;11.478;2024-03-17T13:01:01;3.72;;;2.42;;
13220;SDS011;6675;48.128;11.478;2024-03-17T13:03:37;2.95;;;1.98;;
13220;SDS011;6675;48.128;11.478;2024-03-17T13:06:05;3.03;;;1.98;;
13220;SDS011;6675;48.128;11.478;2024-03-17T13:08:31;9.60;;;8.18;;
13220;SDS011;6675;48.128;11.478;2024-03-17T13:10:58;5.72;;;4.72;;
13220;SDS011;6675;48.128;11.478;2024-03-17T13:13:29;3.90;;;2.65;;
13220;SDS011;6675;48.128;11.478;2024-03-17T13:15:55;9.55;;;8.65;;
13220;SDS011;6675;48.128;11.478;2024-03-17T13:18:21;5.05;;;4.53;;
13220;SDS011;6675;48.128;11.478;2024-03-17T13:20:47;4.18;;;2.88;;
13220;SDS011;6675;48.128;11.478;2024-03-17T13:23:18;5.60;;;4.60;;
13220;SDS011;6675;48.128;11.478;2024-03-17T13:25:46;5.00;;;3.50;;
13220;SDS011;6675;48.128;11.478;2024-03-17T13:28:13;5.57;;;4.93;;
13220;SDS011;6675;48.128;11.478;2024-03-17T13:30:38;4.40;;;3.63;;
13220;SDS011;6675;48.128;11.478;2024-03-17T13:33:04;5.70;;;2.80;;
13220;SDS011;6675;48.128;11.478;2024-03-17T13:35:34;3.53;;;2.50;;
13220;SDS011;6675;48.128;11.478;2024-03-17T13:38:03;4.07;;;2.40;;
13220;SDS011;6675;48.128;11.478;2024-03-17T13:40:31;3.60;;;1.98;;
13220;SDS011;6675;48.128;11.478;2024-03-17T13:42:57;3.58;;;1.98;;
13220;SDS011;6675;48.128;11.478;2024-03-17T13:45:24;4.82;;;2.33;;
13220;SDS011;6675;48.128;11.478;2024-03-17T13:47:56;3.05;;;2.03;;
13220;SDS011;6675;48.128;11.478;2024-03-17T13:50:22;3.45;;;1.92;;
13220;SDS011;6675;48.128;11.478;2024-03-17T13:52:48;2.83;;;1.85;;
13220;SDS011;6675;48.128;11.478;2024-03-17T13:57:43;2.30;;;1.60;;
13220;SDS011;6675;48.128;11.478;2024-03-17T14:00:10;3.75;;;2.20;;
13220;SDS011;6675;48.128;11.478;2024-03-17T14:02:41;3.33;;;1.75;;
13220;SDS011;6675;48.128;11.478;2024-03-17T14:05:08;3.65;;;2.03;;
13220;SDS011;6675;48.128;11.478;2024-03-17T14:07:37;3.83;;;2.60;;
13220;SDS011;6675;48.128;11.478;2024-03-17T14:10:04;3.08;;;1.92;;
13220;SDS011;6675;48.128;11.478;2024-03-17T14:12:30;3.55;;;1.77;;
13220;SDS011;6675;48.128;11.478;2024-03-17T14:14:56;3.20;;;2.08;;
13220;SDS011;6675;48.128;11.478;2024-03-17T14:17:22;2.97;;;1.83;;
13220;SDS011;6675;48.128;11.478;2024-03-17T14:19:47;4.07;;;2.35;;
13220;SDS011;6675;48.128;11.478;2024-03-17T14:22:13;4.18;;;2.58;;
13220;SDS011;6675;48.128;11.478;2024-03-17T14:24:40;2.75;;;1.90;;
13220;SDS011;6675;48.128;11.478;2024-03-17T14:27:05;4.15;;;2.10;;
13220;SDS011;6675;48.128;11.478;2024-03-17T14:29:31;3.40;;;1.88;;
13220;SDS011;6675;48.128;11.478;2024-03-17T14:31:57;4.35;;;2.65;;
13220;SDS011;6675;48.128;11.478;2024-03-17T14:34:22;3.45;;;2.10;;
13220;SDS011;6675;48.128;11.478;2024-03-17T14:36:48;3.85;;;1.90;;
13220;SDS011;6675;48.128;11.478;2024-03-17T14:39:14;4.10;;;2.05;;
13220;SDS011;6675;48.128;11.478;2024-03-17T14:41:40;3.15;;;1.95;;
13220;SDS011;6675;48.128;11.478;2024-03-17T14:44:06;2.53;;;1.55;;
13220;SDS011;6675;48.128;11.478;2024-03-17T14:46:33;4.60;;;2.85;;
13220;SDS011;6675;48.128;11.478;2024-03-17T14:48:58;2.75;;;1.60;;
13220;SDS011;6675;48.128;11.478;2024-03-17T14:51:24;4.10;;;2.00;;
13220;SDS011;6675;48.128;11.478;2024-03-17T14:53:50;3.30;;;2.10;;
13220;SDS011;6675;48.128;11.478;2024-03-17T14:56:17;3.42;;;2.10;;
13220;SDS011;6675;48.128;11.478;2024-03-17T14:58:44;3.42;;;1.77;;
13220;SDS011;6675;48.128;11.478;2024-03-17T15:01:11;5.63;;;2.95;;
13220;SDS011;6675;48.128;11.478;2024-03-17T15:03:37;17.48;;;7.10;;
13220;SDS011;6675;48.128;11.478;2024-03-17T15:06:08;15.40;;;5.65;;
13220;SDS011;6675;48.128;11.478;2024-03-17T15:08:34;10.00;;;4.10;;
13220;SDS011;6675;48.128;11.478;2024-03-17T15:11:00;6.72;;;2.85;;
13220;SDS011;6675;48.128;11.478;2024-03-17T15:13:25;5.55;;;2.65;;
13220;SDS011;6675;48.128;11.478;2024-03-17T15:15:51;7.05;;;2.80;;
13220;SDS011;6675;48.128;11.478;2024-03-17T15:18:19;4.50;;;2.40;;
13220;SDS011;6675;48.128;11.478;2024-03-17T15:20:51;3.28;;;1.70;;
13220;SDS011;6675;48.128;11.478;2024-03-17T15:25:43;3.80;;;1.80;;
13220;SDS011;6675;48.128;11.478;2024-03-17T15:28:09;3.47;;;1.75;;
13220;SDS011;6675;48.128;11.478;2024-03-17T15:30:37;2.95;;;1.80;;
13220;SDS011;6675;48.128;11.478;2024-03-17T15:33:02;3.25;;;1.77;;
13220;SDS011;6675;48.128;11.478;2024-03-17T15:35:28;3.60;;;1.83;;
13220;SDS011;6675;48.128;11.478;2024-03-17T15:37:56;3.53;;;2.13;;
13220;SDS011;6675;48.128;11.478;2024-03-17T15:40:22;3.20;;;2.05;;
13220;SDS011;6675;48.128;11.478;2024-03-17T15:42:48;4.20;;;1.75;;
13220;SDS011;6675;48.128;11.478;2024-03-17T15:45:18;2.80;;;1.80;;
13220;SDS011;6675;48.128;11.478;2024-03-17T15:47:50;2.83;;;1.70;;
13220;SDS011;6675;48.128;11.478;2024-03-17T15:50:15;3.60;;;1.90;;